createdAt,value
2022-08-07T00:01:44.163Z,6.10
2022-08-07T00:04:24.398Z,5.49
2022-08-07T00:06:52.412Z,5.97
2022-08-07T00:09:21.365Z,5.74
2022-08-07T00:11:56.238Z,5.79
2022-08-07T00:14:29.865Z,6.03
2022-08-07T00:16:57.074Z,5.51
2022-08-07T00:19:25.919Z,5.62
2022-08-07T00:21:56.612Z,5.39
2022-08-07T00:24:28.157Z,5.75
2022-08-07T00:27:06.293Z,6.11
2022-08-07T00:29:33.560Z,5.87
2022-08-07T00:32:03.582Z,5.96
2022-08-07T00:34:32.191Z,5.71
2022-08-07T00:36:58.739Z,5.51
2022-08-07T00:39:25.893Z,5.72
2022-08-07T00:41:53.472Z,5.32
2022-08-07T00:44:20.308Z,5.69
2022-08-07T00:46:47.294Z,6.04
2022-08-07T00:50:16.760Z,5.65
2022-08-07T00:52:00.001Z,5.94
2022-08-07T00:54:26.361Z,5.60
2022-08-07T00:56:53.227Z,5.63
2022-08-07T00:59:20.220Z,6.33
2022-08-07T01:01:58.957Z,5.82
2022-08-07T01:04:25.371Z,5.96
2022-08-07T01:06:51.729Z,5.91
2022-08-07T01:10:05.260Z,5.88
2022-08-07T01:12:27.865Z,5.89
2022-08-07T01:14:50.769Z,5.89
2022-08-07T01:17:27.426Z,5.48
2022-08-07T01:19:55.338Z,5.53
2022-08-07T01:22:29.230Z,5.77
2022-08-07T01:24:56.001Z,5.96
2022-08-07T01:27:22.365Z,5.98
2022-08-07T01:29:50.669Z,5.73
2022-08-07T01:32:17.163Z,5.73
2022-08-07T01:34:47.450Z,5.86
2022-08-07T01:37:15.606Z,6.12
2022-08-07T01:39:46.916Z,5.78
2022-08-07T01:42:37.772Z,5.79
2022-08-07T01:44:59.831Z,6.23
2022-08-07T01:48:20.695Z,5.97
2022-08-07T01:50:13.075Z,5.70
2022-08-07T01:52:49.609Z,5.82
2022-08-07T01:55:22.264Z,5.67
2022-08-07T01:58:06.428Z,5.80
2022-08-07T02:00:45.257Z,5.51
2022-08-07T02:03:21.779Z,5.61
2022-08-07T02:05:59.495Z,5.87
2022-08-07T02:08:26.625Z,5.81
2022-08-07T02:10:55.001Z,6.01
2022-08-07T02:13:21.850Z,6.19
2022-08-07T02:16:08.190Z,6.27
2022-08-07T02:18:38.397Z,6.25
2022-08-07T02:21:13.737Z,6.00
2022-08-07T02:23:42.626Z,6.38
2022-08-07T02:26:33.885Z,5.89
2022-08-07T02:28:57.463Z,6.05
2022-08-07T02:31:29.129Z,6.44
2022-08-07T02:34:03.598Z,6.33
2022-08-07T02:36:32.720Z,6.27
2022-08-07T02:38:59.700Z,6.31
2022-08-07T02:41:26.164Z,6.51
2022-08-07T02:44:03.605Z,6.26
2022-08-07T02:46:31.636Z,6.41
2022-08-07T02:48:58.089Z,6.49
2022-08-07T02:51:41.691Z,6.65
2022-08-07T02:54:09.355Z,6.32
2022-08-07T02:56:35.712Z,6.42
2022-08-07T02:59:02.304Z,6.67
2022-08-07T03:01:35.538Z,6.63
2022-08-07T03:04:07.778Z,6.33
2022-08-07T03:06:39.456Z,6.04
2022-08-07T03:09:05.814Z,6.57
2022-08-07T03:11:32.912Z,6.61
2022-08-07T03:14:05.121Z,6.55
2022-08-07T03:16:31.478Z,6.75
2022-08-07T03:18:57.841Z,6.81
2022-08-07T03:21:24.214Z,6.76
2022-08-07T03:24:18.444Z,7.10
2022-08-07T03:26:51.262Z,6.95
2022-08-07T03:29:23.268Z,7.04
2022-08-07T03:31:54.015Z,7.27
2022-08-07T03:34:22.847Z,6.99
2022-08-07T03:36:53.786Z,7.46
2022-08-07T03:39:46.426Z,7.43
2022-08-07T03:42:06.646Z,7.42
2022-08-07T03:44:34.654Z,7.33
2022-08-07T03:47:11.429Z,7.16
2022-08-07T03:49:41.045Z,7.25
2022-08-07T03:52:07.420Z,7.26
2022-08-07T03:54:54.801Z,7.63
2022-08-07T03:58:34.342Z,7.27
2022-08-07T04:00:08.075Z,7.62
2022-08-07T04:02:36.910Z,7.76
2022-08-07T04:05:07.834Z,7.88
2022-08-07T04:07:41.815Z,7.69
2022-08-07T04:10:15.732Z,7.24
2022-08-07T04:12:46.125Z,7.48
2022-08-07T04:15:13.660Z,7.35
2022-08-07T04:18:31.373Z,7.55
2022-08-07T04:20:27.682Z,7.14
2022-08-07T04:23:01.509Z,7.28
2022-08-07T04:25:29.247Z,7.20
2022-08-07T04:28:00.786Z,7.31
2022-08-07T04:30:39.360Z,7.16
2022-08-07T04:33:13.861Z,7.59
2022-08-07T04:35:42.140Z,7.47
2022-08-07T04:38:08.595Z,7.63
2022-08-07T04:40:35.062Z,7.58
2022-08-07T04:43:03.364Z,7.53
2022-08-07T04:45:57.917Z,7.61
2022-08-07T04:48:16.784Z,7.71
2022-08-07T04:50:43.429Z,7.66
2022-08-07T04:53:39.945Z,7.65
2022-08-07T04:58:11.837Z,7.75
2022-08-07T05:01:37.601Z,7.38
2022-08-07T05:04:08.269Z,7.57
2022-08-07T05:06:43.667Z,7.42
2022-08-07T05:09:17.531Z,7.54
2022-08-07T05:12:04.748Z,7.62
2022-08-07T05:14:52.510Z,7.47
2022-08-07T05:17:51.989Z,7.29
2022-08-07T05:20:07.857Z,7.70
2022-08-07T05:22:36.120Z,7.27
2022-08-07T05:25:03.232Z,7.35
2022-08-07T05:28:16.139Z,7.62
2022-08-07T05:30:30.103Z,7.34
2022-08-07T05:32:59.575Z,7.40
2022-08-07T05:35:33.402Z,7.39
2022-08-07T05:38:09.831Z,7.44
2022-08-07T05:40:36.431Z,7.36
2022-08-07T05:43:02.809Z,7.12
2022-08-07T05:45:46.565Z,7.35
2022-08-07T05:48:14.326Z,7.80
2022-08-07T05:50:42.957Z,7.23
2022-08-07T05:54:09.679Z,7.25
2022-08-07T05:56:03.774Z,7.24
2022-08-07T05:58:36.751Z,7.44
2022-08-07T06:01:04.954Z,7.89
2022-08-07T06:03:53.287Z,7.96
2022-08-07T06:06:19.013Z,7.79
2022-08-07T06:08:46.723Z,7.98
2022-08-07T06:11:13.225Z,7.80
2022-08-07T06:14:12.583Z,7.51
2022-08-07T06:16:28.211Z,7.43
2022-08-07T06:18:56.047Z,7.79
2022-08-07T06:22:16.649Z,7.83
2022-08-07T06:24:37.937Z,7.54
2022-08-07T06:26:55.144Z,7.64
2022-08-07T06:29:21.509Z,7.79
2022-08-07T06:31:51.053Z,8.04
2022-08-07T06:34:19.836Z,7.79
2022-08-07T06:36:47.888Z,7.78
2022-08-07T06:40:17.715Z,7.62
2022-08-07T06:42:04.999Z,7.57
2022-08-07T06:44:33.840Z,7.84
2022-08-07T06:47:12.498Z,8.47
2022-08-07T06:49:50.794Z,8.04
2022-08-07T06:52:31.597Z,8.41
2022-08-07T06:55:34.502Z,8.17
2022-08-07T06:57:52.234Z,8.31
2022-08-07T07:00:21.249Z,8.46
2022-08-07T07:02:54.003Z,7.88
2022-08-07T07:06:02.440Z,7.95
2022-08-07T07:08:10.040Z,8.03
2022-08-07T07:10:38.958Z,7.82
2022-08-07T07:13:14.058Z,7.72
2022-08-07T07:15:40.432Z,7.63
2022-08-07T07:18:09.458Z,8.02
2022-08-07T07:20:36.584Z,8.13
2022-08-07T07:24:06.626Z,7.95
2022-08-07T07:26:32.529Z,7.79
2022-08-07T07:29:23.593Z,8.05
2022-08-07T07:31:22.380Z,7.62
2022-08-07T07:33:48.944Z,7.66
2022-08-07T07:36:23.144Z,7.71
2022-08-07T07:38:58.996Z,8.15
2022-08-07T07:41:30.948Z,7.69
2022-08-07T07:44:17.717Z,7.72
2022-08-07T07:46:55.718Z,7.47
2022-08-07T07:50:35.101Z,7.65
2022-08-07T07:52:13.163Z,7.59
2022-08-07T07:54:39.974Z,7.64
2022-08-07T07:57:16.928Z,7.49
2022-08-07T07:59:52.685Z,7.54
2022-08-07T08:02:33.908Z,7.63
2022-08-07T08:05:01.630Z,7.12
2022-08-07T08:07:35.916Z,7.40
2022-08-07T08:10:08.647Z,7.41
2022-08-07T08:12:51.590Z,6.97
2022-08-07T08:15:23.336Z,6.90
2022-08-07T08:17:57.357Z,7.11
2022-08-07T08:20:31.853Z,6.85
2022-08-07T08:22:58.566Z,7.04
2022-08-07T08:25:42.259Z,6.93
2022-08-07T08:28:09.469Z,7.15
2022-08-07T08:30:42.518Z,7.60
2022-08-07T08:33:10.589Z,7.48
2022-08-07T08:35:46.961Z,7.49
2022-08-07T08:38:16.171Z,7.19
2022-08-07T08:40:43.915Z,7.00
2022-08-07T08:43:13.755Z,7.01
2022-08-07T08:45:59.013Z,7.32
2022-08-07T08:48:32.379Z,7.59
2022-08-07T08:50:59.007Z,7.30
2022-08-07T08:53:29.838Z,6.83
2022-08-07T08:55:58.568Z,7.01
2022-08-07T08:58:29.016Z,7.29
2022-08-07T09:00:56.451Z,7.27
2022-08-07T09:03:23.576Z,6.98
2022-08-07T09:06:11.347Z,6.93
2022-08-07T09:08:39.304Z,7.29
2022-08-07T09:11:05.777Z,7.52
2022-08-07T09:13:36.946Z,7.80
2022-08-07T09:16:24.119Z,8.77
2022-08-07T09:18:53.374Z,8.26
2022-08-07T09:21:33.914Z,7.85
2022-08-07T09:24:32.969Z,7.65
2022-08-07T09:26:58.019Z,7.26
2022-08-07T09:30:05.170Z,7.11
2022-08-07T09:32:18.852Z,7.05
2022-08-07T09:34:53.966Z,7.68
2022-08-07T09:37:20.667Z,7.36
2022-08-07T09:40:07.040Z,7.06
2022-08-07T09:42:35.178Z,7.78
2022-08-07T09:47:24.851Z,7.47
2022-08-07T09:48:00.131Z,7.17
2022-08-07T09:50:30.315Z,8.43
2022-08-07T09:52:56.709Z,7.03
2022-08-07T09:55:29.252Z,6.61
2022-08-07T09:57:56.402Z,6.01
2022-08-07T10:00:24.310Z,5.80
2022-08-07T10:02:56.529Z,5.40
2022-08-07T10:05:59.101Z,5.91
2022-08-07T10:08:09.318Z,5.92
2022-08-07T10:11:00.254Z,5.67
2022-08-07T10:13:54.878Z,5.23
2022-08-07T10:16:08.639Z,5.45
2022-08-07T10:18:36.153Z,5.37
2022-08-07T10:21:02.527Z,5.14
2022-08-07T10:24:04.933Z,5.43
2022-08-07T10:26:15.224Z,5.48
2022-08-07T10:28:50.936Z,5.45
2022-08-07T10:31:18.600Z,5.48
2022-08-07T10:34:05.707Z,5.69
2022-08-07T10:36:31.320Z,5.74
2022-08-07T10:39:04.412Z,6.02
2022-08-07T10:41:47.391Z,6.24
2022-08-07T10:44:19.287Z,5.92
2022-08-07T10:46:54.923Z,5.70
2022-08-07T10:49:24.435Z,6.22
2022-08-07T10:52:12.942Z,5.67
2022-08-07T10:54:37.537Z,5.77
2022-08-07T10:57:04.660Z,5.90
2022-08-07T10:59:31.904Z,5.63
2022-08-07T11:02:11.838Z,6.08
2022-08-07T11:04:39.054Z,5.66
2022-08-07T11:07:05.565Z,5.25
2022-08-07T11:10:09.210Z,5.50
2022-08-07T11:12:37.123Z,5.31
2022-08-07T11:15:03.502Z,5.73
2022-08-07T11:17:45.215Z,5.65
2022-08-07T11:20:12.253Z,5.46
2022-08-07T11:22:45.835Z,5.56
2022-08-07T11:25:12.838Z,5.38
2022-08-07T11:28:02.434Z,5.73
2022-08-07T11:30:39.148Z,5.56
2022-08-07T11:33:14.177Z,5.71
2022-08-07T11:35:59.591Z,5.57
2022-08-07T11:38:28.384Z,5.71
2022-08-07T11:40:56.105Z,5.37
2022-08-07T11:43:29.777Z,5.71
2022-08-07T11:46:08.894Z,5.69
2022-08-07T11:48:35.754Z,5.35
2022-08-07T11:51:03.964Z,5.60
2022-08-07T11:53:35.632Z,5.70
2022-08-07T11:56:26.049Z,5.70
2022-08-07T11:58:49.898Z,5.59
2022-08-07T12:01:19.929Z,5.60
2022-08-07T12:03:48.317Z,5.59
2022-08-07T12:06:39.960Z,5.73
2022-08-07T12:11:20.380Z,6.16
2022-08-07T12:13:48.150Z,5.66
2022-08-07T12:16:16.107Z,6.18
2022-08-07T12:18:56.556Z,6.40
2022-08-07T12:21:55.884Z,6.47
2022-08-07T12:24:12.493Z,6.55
2022-08-07T12:26:55.631Z,6.78
2022-08-07T12:29:37.226Z,7.11
2022-08-07T12:32:05.419Z,7.27
2022-08-07T12:34:33.378Z,6.65
2022-08-07T12:36:59.740Z,6.48
2022-08-07T12:39:43.288Z,6.26
2022-08-07T12:42:13.137Z,6.36
2022-08-07T12:44:39.747Z,6.49
2022-08-07T12:47:11.373Z,6.47
2022-08-07T12:49:44.275Z,6.23
2022-08-07T12:52:19.319Z,6.34
2022-08-07T12:54:55.030Z,6.29
2022-08-07T12:57:23.008Z,6.06
2022-08-07T12:59:54.544Z,6.35
2022-08-07T13:02:22.021Z,6.15
2022-08-07T13:05:01.455Z,6.13
2022-08-07T13:08:12.602Z,6.06
2022-08-07T13:10:29.378Z,5.76
2022-08-07T13:13:01.343Z,5.77
2022-08-07T13:15:32.513Z,6.04
2022-08-07T13:17:59.533Z,5.89
2022-08-07T13:20:27.740Z,5.88
2022-08-07T13:22:54.335Z,6.01
2022-08-07T13:25:28.771Z,5.73
2022-08-07T13:28:12.531Z,5.71
2022-08-07T13:30:43.859Z,5.58
2022-08-07T13:34:14.399Z,5.93
2022-08-07T13:36:00.348Z,5.66
2022-08-07T13:38:27.986Z,5.63
2022-08-07T13:40:57.017Z,5.78
2022-08-07T13:43:25.863Z,5.51
2022-08-07T13:46:12.195Z,5.38
2022-08-07T13:48:40.755Z,5.77
2022-08-07T13:51:27.064Z,5.65
2022-08-07T13:54:00.464Z,5.50
2022-08-07T13:56:35.377Z,5.47
2022-08-07T13:59:10.401Z,5.72
2022-08-07T14:01:51.471Z,5.50
2022-08-07T14:04:29.914Z,5.48
2022-08-07T14:07:03.218Z,5.67
2022-08-07T14:10:01.933Z,5.92
2022-08-07T14:12:16.633Z,5.80
2022-08-07T14:14:53.856Z,5.78
2022-08-07T14:17:51.657Z,5.63
2022-08-07T14:20:41.675Z,6.05
2022-08-07T14:22:52.906Z,5.99
2022-08-07T14:25:19.257Z,5.57
2022-08-07T14:28:20.986Z,5.57
2022-08-07T14:30:33.440Z,6.12
2022-08-07T14:32:59.807Z,5.69
2022-08-07T14:35:45.412Z,5.55
2022-08-07T14:38:26.552Z,5.61
2022-08-07T14:40:57.508Z,5.63
2022-08-07T14:43:57.911Z,5.52
2022-08-07T14:46:10.792Z,5.66
2022-08-07T14:48:37.157Z,5.56
2022-08-07T14:51:03.531Z,5.49
2022-08-07T14:54:05.816Z,5.45
2022-08-07T14:56:30.132Z,5.31
2022-08-07T14:58:56.934Z,5.51
2022-08-07T15:01:23.299Z,5.54
2022-08-07T15:06:36.086Z,5.46
2022-08-07T15:09:03.448Z,5.45
2022-08-07T15:11:53.849Z,5.41
2022-08-07T15:14:30.647Z,5.41
2022-08-07T15:17:00.988Z,5.07
2022-08-07T15:20:30.878Z,5.38
2022-08-07T15:28:07.907Z,5.63
2022-08-07T15:30:32.818Z,5.92
2022-08-07T15:33:03.959Z,6.01
2022-08-07T15:36:04.932Z,5.76
2022-08-07T15:41:23.397Z,5.60
2022-08-07T15:44:04.505Z,5.76
2022-08-07T15:46:38.493Z,5.96
2022-08-07T15:49:16.400Z,5.75
2022-08-07T15:54:24.217Z,6.00
2022-08-07T15:56:52.724Z,6.03
2022-08-07T15:59:19.076Z,5.80
2022-08-07T16:01:45.467Z,6.10
2022-08-07T16:04:28.977Z,6.18
2022-08-07T16:06:58.432Z,6.26
2022-08-07T16:09:41.190Z,6.31
2022-08-07T16:12:12.252Z,5.97
2022-08-07T16:14:38.791Z,5.89
2022-08-07T16:17:14.826Z,5.93
2022-08-07T16:19:58.919Z,5.98
2022-08-07T16:22:33.399Z,5.85
2022-08-07T16:25:02.571Z,6.02
2022-08-07T16:27:39.829Z,6.21
2022-08-07T16:30:31.198Z,5.89
2022-08-07T16:32:54.224Z,6.01
2022-08-07T16:35:51.700Z,6.02
2022-08-07T16:38:09.451Z,6.07
2022-08-07T16:40:36.244Z,5.70
2022-08-07T16:43:22.488Z,6.06
2022-08-07T16:46:34.711Z,6.01
2022-08-07T16:48:53.670Z,6.24
2022-08-07T16:52:01.893Z,5.81
2022-08-07T16:54:09.638Z,6.05
2022-08-07T16:56:37.668Z,6.06
2022-08-07T16:59:10.853Z,6.30
2022-08-07T17:01:41.641Z,5.93
2022-08-07T17:04:12.362Z,5.53
2022-08-07T17:06:44.872Z,5.94
2022-08-07T17:09:14.154Z,5.77
2022-08-07T17:12:01.282Z,5.67
2022-08-07T17:14:28.047Z,5.92
2022-08-07T17:16:55.891Z,5.50
2022-08-07T17:20:00.898Z,5.72
2022-08-07T17:22:10.627Z,6.00
2022-08-07T17:24:37.075Z,5.98
2022-08-07T17:27:03.433Z,6.11
2022-08-07T17:30:14.284Z,5.88
2022-08-07T17:32:51.947Z,6.05
2022-08-07T17:35:50.146Z,6.16
2022-08-07T17:38:06.595Z,6.35
2022-08-07T17:40:35.279Z,7.31
2022-08-07T17:43:01.678Z,6.84
2022-08-07T17:45:28.081Z,6.77
2022-08-07T17:47:54.572Z,7.15
2022-08-07T17:50:21.687Z,6.77
2022-08-07T17:52:48.070Z,6.52
2022-08-07T17:55:14.425Z,6.75
2022-08-07T17:58:01.988Z,6.54
2022-08-07T18:00:34.721Z,6.26
2022-08-07T18:03:17.986Z,6.31
2022-08-07T18:06:01.814Z,6.24
2022-08-07T18:08:31.225Z,6.24
2022-08-07T18:12:07.730Z,6.28
2022-08-07T18:13:44.008Z,6.04
2022-08-07T18:16:11.976Z,5.97
2022-08-07T18:21:03.317Z,5.75
2022-08-07T18:21:51.820Z,5.53
2022-08-07T18:24:11.748Z,5.79
2022-08-07T18:26:58.092Z,5.42
2022-08-07T18:30:06.795Z,5.78
2022-08-07T18:32:11.068Z,5.70
2022-08-07T18:35:01.019Z,5.28
2022-08-07T18:38:56.458Z,5.14
2022-08-07T18:40:40.545Z,5.21
2022-08-07T18:42:56.466Z,5.52
2022-08-07T18:45:44.993Z,5.50
2022-08-07T18:48:09.434Z,5.26
2022-08-07T18:50:43.839Z,5.21
2022-08-07T18:53:13.887Z,5.59
2022-08-07T18:55:42.964Z,5.27
2022-08-07T18:58:22.675Z,5.38
2022-08-07T19:00:54.182Z,5.45
2022-08-07T19:03:36.154Z,5.31
2022-08-07T19:06:05.158Z,5.70
2022-08-07T19:08:31.570Z,5.54
2022-08-07T19:10:58.302Z,5.68
2022-08-07T19:13:24.670Z,5.67
2022-08-07T19:16:02.724Z,5.41
2022-08-07T19:18:37.390Z,5.74
2022-08-07T19:21:44.287Z,5.32
2022-08-07T19:24:00.148Z,5.18
2022-08-07T19:26:28.925Z,5.10
2022-08-07T19:30:57.628Z,5.38
2022-08-07T19:32:10.927Z,4.77
2022-08-07T19:34:34.531Z,4.80
2022-08-07T19:37:09.909Z,4.86
2022-08-07T19:39:58.006Z,4.89
2022-08-07T19:42:29.529Z,4.34
2022-08-07T19:44:56.994Z,4.61
2022-08-07T19:47:27.740Z,4.53
2022-08-07T19:49:58.044Z,4.56
2022-08-07T19:52:25.396Z,4.41
2022-08-07T19:54:56.375Z,4.08
2022-08-07T19:58:01.760Z,4.34
2022-08-07T20:00:10.345Z,4.22
2022-08-07T20:02:38.931Z,4.27
2022-08-07T20:05:07.629Z,4.04
2022-08-07T20:07:45.904Z,4.11
2022-08-07T20:10:35.219Z,3.81
2022-08-07T20:13:00.726Z,3.82
2022-08-07T20:15:33.159Z,3.79
2022-08-07T20:18:04.448Z,3.73
2022-08-07T20:20:30.901Z,3.86
2022-08-07T20:22:57.268Z,3.82
2022-08-07T20:25:23.634Z,3.62
2022-08-07T20:27:58.080Z,3.74
2022-08-07T20:30:29.613Z,3.68
2022-08-07T20:32:57.316Z,3.50
2022-08-07T20:35:27.087Z,3.59
2022-08-07T20:37:58.785Z,3.57
2022-08-07T20:40:32.437Z,3.70
2022-08-07T20:43:00.968Z,3.52
2022-08-07T20:45:33.457Z,3.61
2022-08-07T20:48:28.852Z,3.59
2022-08-07T20:50:56.992Z,3.76
2022-08-07T20:53:25.987Z,3.87
2022-08-07T20:56:10.478Z,3.67
2022-08-07T20:58:36.855Z,3.76
2022-08-07T21:01:04.825Z,3.63
2022-08-07T21:03:31.461Z,3.69
2022-08-07T21:06:01.338Z,3.69
2022-08-07T21:08:32.338Z,4.02
2022-08-07T21:11:04.735Z,3.71
2022-08-07T21:13:57.110Z,3.84
2022-08-07T21:16:17.441Z,3.87
2022-08-07T21:18:46.113Z,4.12
2022-08-07T21:21:16.725Z,3.96
2022-08-07T21:23:50.393Z,4.17
2022-08-07T21:26:17.155Z,3.91
2022-08-07T21:28:49.268Z,3.95
2022-08-07T21:31:16.930Z,3.98
2022-08-07T21:34:03.265Z,4.20
2022-08-07T21:36:33.186Z,4.03
2022-08-07T21:38:59.591Z,4.15
2022-08-07T21:41:26.369Z,4.36
2022-08-07T21:43:56.129Z,4.23
2022-08-07T21:46:25.009Z,4.24
2022-08-07T21:48:57.938Z,4.29
2022-08-07T21:51:25.099Z,4.11
2022-08-07T21:53:52.795Z,4.42
2022-08-07T21:56:37.675Z,4.39
2022-08-07T21:59:06.312Z,4.31
2022-08-07T22:02:10.703Z,4.16
2022-08-07T22:04:20.370Z,4.20
2022-08-07T22:06:49.870Z,4.25
2022-08-07T22:09:17.920Z,4.11
2022-08-07T22:12:05.276Z,4.19
2022-08-07T22:14:36.329Z,4.12
2022-08-07T22:17:03.931Z,3.99
2022-08-07T22:19:30.593Z,3.88
2022-08-07T22:22:02.143Z,3.87
2022-08-07T22:24:33.031Z,3.70
2022-08-07T22:26:59.697Z,3.84
2022-08-07T22:29:38.081Z,4.29
2022-08-07T22:32:13.048Z,4.09
2022-08-07T22:34:49.787Z,3.80
2022-08-07T22:37:19.602Z,3.98
2022-08-07T22:39:53.149Z,3.86
2022-08-07T22:42:25.885Z,3.58
2022-08-07T22:45:21.741Z,3.75
2022-08-07T22:47:52.696Z,3.74
2022-08-07T22:50:20.918Z,3.74
2022-08-07T22:52:55.268Z,3.89
2022-08-07T22:55:23.390Z,3.93
2022-08-07T22:57:56.670Z,4.00
2022-08-07T23:00:28.571Z,3.95
2022-08-07T23:02:55.549Z,3.99
2022-08-07T23:06:09.268Z,4.00
2022-08-07T23:08:22.325Z,3.95
2022-08-07T23:10:56.401Z,3.81
2022-08-07T23:13:29.369Z,3.44
2022-08-07T23:16:07.028Z,3.76
2022-08-07T23:18:35.076Z,3.73
2022-08-07T23:21:08.610Z,3.83
2022-08-07T23:24:05.485Z,3.69
2022-08-07T23:26:23.332Z,3.84
2022-08-07T23:28:54.454Z,3.92
2022-08-07T23:32:50.161Z,3.82
2022-08-07T23:34:34.161Z,3.84
2022-08-07T23:37:20.512Z,3.76
2022-08-07T23:39:41.730Z,3.82
2022-08-07T23:42:08.146Z,3.63
2022-08-07T23:44:34.506Z,3.72
2022-08-07T23:47:00.872Z,3.90
2022-08-07T23:49:42.269Z,3.83
2022-08-07T23:53:02.037Z,3.91
2022-08-07T23:54:59.927Z,3.59
2022-08-07T23:57:27.719Z,3.74
